KLM1827 EHAM-EDDS
Flight info
| Callsign | KLM1827 |
|---|---|
| Flight time | 0h 51m |
| Altitude | 35000 |
| Route | EDUPO Z739 MISGO DCT DOJOH DCT DODEN DCT TABUM DCT FOLWU DCT UBENO N850 KRH T128 BADSO BADSO2A |
| Aircraft | A320/M-SDE3FGHIRWY/LB1 |
Departure
| Time | 2026-05-07 06:57 |
|---|---|
| Airport | Amsterdam Airport Schiphol (EHAM) |
Arrival
| Time | 2026-05-07 07:49 |
|---|---|
| Airport | Stuttgart Airport (EDDS) |
| Time | Latitude | Longitude | Altitude | Speed | Heading |
|---|---|---|---|---|---|
| 2026-05-07 06:25 | 52.30408 | 4.76355 | -1 ft | 0 kts | 238° |
| 2026-05-07 06:46 | 52.30409 | 4.76357 | -1 ft | 2 kts | 238° |
| 2026-05-07 06:46 | 52.30424 | 4.76390 | -1 ft | 4 kts | 217° |
| 2026-05-07 06:47 | 52.30447 | 4.76408 | -1 ft | 4 kts | 181° |
| 2026-05-07 06:47 | 52.30469 | 4.76402 | -1 ft | 1 kts | 148° |
| 2026-05-07 06:47 | 52.30469 | 4.76401 | -1 ft | 0 kts | 148° |
| 2026-05-07 06:50 | 52.30462 | 4.76408 | -1 ft | 6 kts | 148° |
| 2026-05-07 06:50 | 52.30428 | 4.76443 | -1 ft | 6 kts | 148° |
| 2026-05-07 06:51 | 52.30394 | 4.76478 | -1 ft | 8 kts | 148° |
| 2026-05-07 06:51 | 52.30359 | 4.76514 | -1 ft | 9 kts | 147° |
| 2026-05-07 06:51 | 52.30302 | 4.76522 | -1 ft | 10 kts | 210° |
| 2026-05-07 06:51 | 52.30254 | 4.76417 | -1 ft | 14 kts | 238° |
| 2026-05-07 06:52 | 52.30195 | 4.76262 | -1 ft | 18 kts | 238° |
| 2026-05-07 06:52 | 52.30130 | 4.76093 | -1 ft | 17 kts | 238° |
| 2026-05-07 06:52 | 52.30067 | 4.75928 | -1 ft | 17 kts | 237° |
| 2026-05-07 06:52 | 52.29997 | 4.75745 | -1 ft | 21 kts | 238° |
| 2026-05-07 06:53 | 52.29914 | 4.75529 | -1 ft | 24 kts | 237° |
| 2026-05-07 06:53 | 52.29840 | 4.75335 | -1 ft | 14 kts | 245° |
| 2026-05-07 06:53 | 52.29850 | 4.75178 | -1 ft | 17 kts | 304° |
| 2026-05-07 06:53 | 52.29941 | 4.75012 | -1 ft | 22 kts | 311° |
| 2026-05-07 06:54 | 52.30050 | 4.74810 | 0 ft | 25 kts | 312° |
| 2026-05-07 06:54 | 52.30156 | 4.74616 | 10 ft | 21 kts | 311° |
| 2026-05-07 06:54 | 52.30257 | 4.74428 | 10 ft | 23 kts | 311° |
| 2026-05-07 06:54 | 52.30366 | 4.74220 | -1 ft | 22 kts | 307° |
| 2026-05-07 06:55 | 52.30426 | 4.74068 | -1 ft | 14 kts | 282° |
| 2026-05-07 06:55 | 52.30406 | 4.73916 | -1 ft | 13 kts | 261° |
| 2026-05-07 06:55 | 52.30430 | 4.73772 | -3 ft | 14 kts | 324° |
| 2026-05-07 06:55 | 52.30533 | 4.73769 | -3 ft | 14 kts | 4° |
| 2026-05-07 06:56 | 52.30565 | 4.73772 | -3 ft | 0 kts | 2° |
| 2026-05-07 06:56 | 52.30568 | 4.73772 | -3 ft | 8 kts | 2° |
| 2026-05-07 06:56 | 52.30918 | 4.73802 | -1 ft | 89 kts | 3° |
| 2026-05-07 06:56 | 52.31756 | 4.73880 | -1 ft | 149 kts | 3° |
| 2026-05-07 06:57 | 52.32877 | 4.73967 | 447 ft | 165 kts | 3° |
| 2026-05-07 06:57 | 52.33998 | 4.74298 | 1300 ft | 165 kts | 19° |
| 2026-05-07 06:57 | 52.35127 | 4.74984 | 1864 ft | 185 kts | 22° |
| 2026-05-07 06:57 | 52.36397 | 4.75835 | 2362 ft | 209 kts | 22° |
| 2026-05-07 06:58 | 52.37790 | 4.76885 | 2943 ft | 233 kts | 33° |
| 2026-05-07 06:58 | 52.39010 | 4.78812 | 3671 ft | 251 kts | 46° |
| 2026-05-07 06:58 | 52.40214 | 4.80925 | 4729 ft | 256 kts | 45° |
| 2026-05-07 06:58 | 52.41443 | 4.83072 | 5742 ft | 261 kts | 49° |
| 2026-05-07 06:59 | 52.42277 | 4.85737 | 6703 ft | 270 kts | 76° |
| 2026-05-07 06:59 | 52.42412 | 4.88829 | 7647 ft | 275 kts | 88° |
| 2026-05-07 06:59 | 52.42420 | 4.92000 | 8585 ft | 281 kts | 89° |
| 2026-05-07 06:59 | 52.42306 | 4.95224 | 9484 ft | 287 kts | 101° |
| 2026-05-07 07:00 | 52.41640 | 4.98335 | 10322 ft | 294 kts | 118° |
| 2026-05-07 07:00 | 52.40398 | 5.01108 | 10781 ft | 314 kts | 136° |
| 2026-05-07 07:00 | 52.38603 | 5.03360 | 11075 ft | 337 kts | 146° |
| 2026-05-07 07:00 | 52.36635 | 5.05597 | 11602 ft | 350 kts | 146° |
| 2026-05-07 07:01 | 52.34621 | 5.07895 | 12374 ft | 356 kts | 145° |
| 2026-05-07 07:01 | 52.32730 | 5.10547 | 13161 ft | 361 kts | 134° |
| 2026-05-07 07:01 | 52.31040 | 5.13624 | 13955 ft | 365 kts | 132° |
| 2026-05-07 07:01 | 52.29336 | 5.16747 | 14673 ft | 370 kts | 132° |
| 2026-05-07 07:02 | 52.27615 | 5.19888 | 15373 ft | 373 kts | 132° |
| 2026-05-07 07:02 | 52.25873 | 5.23056 | 16079 ft | 377 kts | 132° |
| 2026-05-07 07:02 | 52.24149 | 5.26312 | 16780 ft | 381 kts | 127° |
| 2026-05-07 07:02 | 52.22605 | 5.29850 | 17461 ft | 385 kts | 126° |
| 2026-05-07 07:03 | 52.21055 | 5.33425 | 18168 ft | 388 kts | 126° |
| 2026-05-07 07:03 | 52.19486 | 5.37036 | 18785 ft | 392 kts | 126° |
| 2026-05-07 07:03 | 52.17942 | 5.40587 | 19376 ft | 395 kts | 126° |
| 2026-05-07 07:03 | 52.16369 | 5.44204 | 19985 ft | 399 kts | 126° |
| 2026-05-07 07:04 | 52.14751 | 5.47918 | 20609 ft | 402 kts | 126° |
| 2026-05-07 07:04 | 52.13120 | 5.51646 | 21242 ft | 406 kts | 126° |
| 2026-05-07 07:04 | 52.11477 | 5.55396 | 21833 ft | 409 kts | 126° |
| 2026-05-07 07:04 | 52.09815 | 5.59191 | 22405 ft | 413 kts | 126° |
| 2026-05-07 07:05 | 52.08144 | 5.63005 | 22969 ft | 416 kts | 126° |
| 2026-05-07 07:05 | 52.06455 | 5.66849 | 23520 ft | 419 kts | 127° |
| 2026-05-07 07:05 | 52.04585 | 5.70493 | 23969 ft | 422 kts | 132° |
| 2026-05-07 07:05 | 52.02651 | 5.74094 | 24433 ft | 425 kts | 132° |
| 2026-05-07 07:06 | 52.00703 | 5.77717 | 24866 ft | 427 kts | 132° |
| 2026-05-07 07:06 | 51.98742 | 5.81364 | 25286 ft | 430 kts | 132° |
| 2026-05-07 07:06 | 51.96772 | 5.85028 | 25701 ft | 432 kts | 131° |
| 2026-05-07 07:06 | 51.94792 | 5.88716 | 26111 ft | 435 kts | 131° |
| 2026-05-07 07:07 | 51.92806 | 5.92425 | 26528 ft | 437 kts | 131° |
| 2026-05-07 07:07 | 51.90807 | 5.96157 | 26918 ft | 440 kts | 131° |
| 2026-05-07 07:07 | 51.88795 | 5.99903 | 27294 ft | 442 kts | 131° |
| 2026-05-07 07:07 | 51.86768 | 6.03665 | 27680 ft | 444 kts | 131° |
| 2026-05-07 07:08 | 51.84731 | 6.07440 | 28053 ft | 447 kts | 131° |
| 2026-05-07 07:08 | 51.82682 | 6.11226 | 28425 ft | 449 kts | 132° |
| 2026-05-07 07:08 | 51.80613 | 6.15035 | 28781 ft | 451 kts | 132° |
| 2026-05-07 07:08 | 51.78562 | 6.18796 | 29117 ft | 453 kts | 132° |
| 2026-05-07 07:09 | 51.76445 | 6.22665 | 29433 ft | 455 kts | 132° |
| 2026-05-07 07:09 | 51.74368 | 6.26449 | 29738 ft | 457 kts | 132° |
| 2026-05-07 07:09 | 51.72255 | 6.30296 | 30031 ft | 459 kts | 132° |
| 2026-05-07 07:09 | 51.70138 | 6.34154 | 30272 ft | 461 kts | 132° |
| 2026-05-07 07:10 | 51.68008 | 6.38033 | 30488 ft | 463 kts | 132° |
| 2026-05-07 07:10 | 51.65867 | 6.41918 | 30746 ft | 463 kts | 132° |
| 2026-05-07 07:10 | 51.63730 | 6.45791 | 31044 ft | 462 kts | 132° |
| 2026-05-07 07:10 | 51.61594 | 6.49656 | 31359 ft | 462 kts | 132° |
| 2026-05-07 07:11 | 51.59454 | 6.53521 | 31655 ft | 461 kts | 132° |
| 2026-05-07 07:11 | 51.57324 | 6.57365 | 31962 ft | 460 kts | 131° |
| 2026-05-07 07:11 | 51.55193 | 6.61209 | 32262 ft | 460 kts | 131° |
| 2026-05-07 07:11 | 51.53065 | 6.65044 | 32584 ft | 459 kts | 131° |
| 2026-05-07 07:12 | 51.50936 | 6.68874 | 32891 ft | 459 kts | 131° |
| 2026-05-07 07:12 | 51.48813 | 6.72684 | 33202 ft | 458 kts | 131° |
| 2026-05-07 07:12 | 51.46684 | 6.76494 | 33517 ft | 458 kts | 132° |
| 2026-05-07 07:12 | 51.44559 | 6.80289 | 33834 ft | 457 kts | 132° |
| 2026-05-07 07:13 | 51.42429 | 6.84083 | 34128 ft | 457 kts | 132° |
| 2026-05-07 07:13 | 51.40297 | 6.87862 | 34387 ft | 457 kts | 133° |
| 2026-05-07 07:13 | 51.38104 | 6.91542 | 34639 ft | 457 kts | 135° |
| 2026-05-07 07:13 | 51.35841 | 6.95113 | 34891 ft | 457 kts | 136° |
| 2026-05-07 07:14 | 51.33570 | 6.98565 | 35003 ft | 456 kts | 137° |
| 2026-05-07 07:14 | 51.31252 | 7.02043 | 35034 ft | 456 kts | 137° |
| 2026-05-07 07:14 | 51.26654 | 7.08990 | 35022 ft | 455 kts | 137° |
| 2026-05-07 07:15 | 51.22122 | 7.15973 | 35017 ft | 455 kts | 136° |
| 2026-05-07 07:15 | 51.17579 | 7.22999 | 35014 ft | 454 kts | 136° |
| 2026-05-07 07:16 | 51.13034 | 7.29984 | 35013 ft | 454 kts | 137° |
| 2026-05-07 07:16 | 51.08478 | 7.36949 | 35024 ft | 454 kts | 137° |
| 2026-05-07 07:17 | 51.03913 | 7.43909 | 35018 ft | 454 kts | 137° |
| 2026-05-07 07:17 | 50.99356 | 7.50833 | 35011 ft | 454 kts | 137° |
| 2026-05-07 07:18 | 50.94793 | 7.57753 | 35003 ft | 454 kts | 137° |
| 2026-05-07 07:18 | 50.90229 | 7.64663 | 34998 ft | 453 kts | 137° |
| 2026-05-07 07:19 | 50.85649 | 7.71547 | 34987 ft | 453 kts | 137° |
| 2026-05-07 07:19 | 50.81082 | 7.78398 | 34987 ft | 453 kts | 137° |
| 2026-05-07 07:20 | 50.76522 | 7.85204 | 34973 ft | 453 kts | 137° |
| 2026-05-07 07:20 | 50.71934 | 7.92016 | 34976 ft | 453 kts | 138° |
| 2026-05-07 07:21 | 50.67342 | 7.98812 | 34971 ft | 453 kts | 137° |
| 2026-05-07 07:21 | 50.62741 | 8.05608 | 34966 ft | 453 kts | 138° |
| 2026-05-07 07:22 | 50.57831 | 8.11750 | 34972 ft | 450 kts | 149° |
| 2026-05-07 07:22 | 50.52550 | 8.17049 | 34966 ft | 450 kts | 148° |
| 2026-05-07 07:23 | 50.47268 | 8.22344 | 34970 ft | 450 kts | 148° |
| 2026-05-07 07:23 | 50.41992 | 8.27630 | 34970 ft | 450 kts | 148° |
| 2026-05-07 07:24 | 50.36708 | 8.32915 | 34971 ft | 450 kts | 148° |
| 2026-05-07 07:24 | 50.31429 | 8.38192 | 34977 ft | 450 kts | 149° |
| 2026-05-07 07:25 | 50.23483 | 8.46056 | 34983 ft | 450 kts | 149° |
| 2026-05-07 07:26 | 50.18205 | 8.51198 | 34997 ft | 450 kts | 149° |
| 2026-05-07 07:26 | 50.12892 | 8.56367 | 35002 ft | 450 kts | 149° |
| 2026-05-07 07:27 | 50.07543 | 8.61423 | 34997 ft | 449 kts | 155° |
| 2026-05-07 07:27 | 50.01636 | 8.64334 | 34995 ft | 446 kts | 173° |
| 2026-05-07 07:28 | 49.95478 | 8.65354 | 34998 ft | 446 kts | 175° |
| 2026-05-07 07:28 | 49.89299 | 8.66387 | 34988 ft | 446 kts | 175° |
| 2026-05-07 07:29 | 49.83122 | 8.67427 | 34986 ft | 446 kts | 175° |
| 2026-05-07 07:29 | 49.76946 | 8.68456 | 34984 ft | 446 kts | 175° |
| 2026-05-07 07:30 | 49.70767 | 8.68606 | 34980 ft | 445 kts | 186° |
| 2026-05-07 07:30 | 49.67680 | 8.68177 | 34850 ft | 445 kts | 186° |
| 2026-05-07 07:30 | 49.64599 | 8.67757 | 34618 ft | 445 kts | 186° |
| 2026-05-07 07:30 | 49.61504 | 8.67346 | 34387 ft | 445 kts | 186° |
| 2026-05-07 07:31 | 49.58419 | 8.66944 | 34155 ft | 445 kts | 186° |
| 2026-05-07 07:31 | 49.55327 | 8.66539 | 33911 ft | 445 kts | 186° |
| 2026-05-07 07:31 | 49.52244 | 8.66129 | 33634 ft | 446 kts | 186° |
| 2026-05-07 07:31 | 49.49158 | 8.65719 | 33247 ft | 446 kts | 186° |
| 2026-05-07 07:32 | 49.46041 | 8.65303 | 32021 ft | 453 kts | 186° |
| 2026-05-07 07:32 | 49.42878 | 8.64875 | 30973 ft | 457 kts | 185° |
| 2026-05-07 07:32 | 49.39700 | 8.64442 | 29813 ft | 462 kts | 185° |
| 2026-05-07 07:32 | 49.36486 | 8.64007 | 28839 ft | 461 kts | 185° |
| 2026-05-07 07:33 | 49.33324 | 8.63590 | 28256 ft | 452 kts | 185° |
| 2026-05-07 07:33 | 49.30245 | 8.63174 | 27507 ft | 448 kts | 186° |
| 2026-05-07 07:33 | 49.27160 | 8.62721 | 26789 ft | 443 kts | 186° |
| 2026-05-07 07:33 | 49.24105 | 8.62244 | 26072 ft | 439 kts | 187° |
| 2026-05-07 07:34 | 49.21081 | 8.61760 | 25363 ft | 436 kts | 187° |
| 2026-05-07 07:34 | 49.18073 | 8.61278 | 24670 ft | 433 kts | 187° |
| 2026-05-07 07:34 | 49.15086 | 8.60801 | 23977 ft | 430 kts | 187° |
| 2026-05-07 07:34 | 49.12114 | 8.60336 | 23248 ft | 428 kts | 187° |
| 2026-05-07 07:35 | 49.09164 | 8.59886 | 22572 ft | 424 kts | 187° |
| 2026-05-07 07:35 | 49.06251 | 8.59455 | 21970 ft | 418 kts | 186° |
| 2026-05-07 07:35 | 49.03364 | 8.59031 | 21385 ft | 414 kts | 187° |
| 2026-05-07 07:35 | 49.00515 | 8.58617 | 20823 ft | 410 kts | 186° |
| 2026-05-07 07:36 | 48.97677 | 8.58605 | 20251 ft | 407 kts | 176° |
| 2026-05-07 07:36 | 48.94854 | 8.58936 | 19618 ft | 406 kts | 176° |
| 2026-05-07 07:36 | 48.92037 | 8.59275 | 19009 ft | 405 kts | 175° |
| 2026-05-07 07:36 | 48.90199 | 8.59726 | 18606 ft | 405 kts | 165° |
| 2026-05-07 07:37 | 48.86891 | 8.62284 | 17686 ft | 405 kts | 140° |
| 2026-05-07 07:37 | 48.85566 | 8.64352 | 17241 ft | 404 kts | 127° |
| 2026-05-07 07:37 | 48.84240 | 8.68069 | 16648 ft | 400 kts | 108° |
| 2026-05-07 07:37 | 48.83758 | 8.72181 | 16043 ft | 395 kts | 90° |
| 2026-05-07 07:38 | 48.84078 | 8.76293 | 15435 ft | 392 kts | 78° |
| 2026-05-07 07:38 | 48.84600 | 8.80354 | 14808 ft | 393 kts | 78° |
| 2026-05-07 07:38 | 48.85123 | 8.84426 | 14181 ft | 393 kts | 78° |
| 2026-05-07 07:38 | 48.85641 | 8.88490 | 13521 ft | 392 kts | 78° |
| 2026-05-07 07:39 | 48.86317 | 8.93846 | 12741 ft | 386 kts | 78° |
| 2026-05-07 07:39 | 48.86652 | 8.96507 | 12288 ft | 387 kts | 78° |
| 2026-05-07 07:39 | 48.87321 | 9.01834 | 11382 ft | 385 kts | 78° |
| 2026-05-07 07:39 | 48.87649 | 9.04455 | 11090 ft | 379 kts | 78° |
| 2026-05-07 07:40 | 48.88131 | 9.08333 | 10796 ft | 366 kts | 78° |
| 2026-05-07 07:40 | 48.88589 | 9.12050 | 10679 ft | 350 kts | 78° |
| 2026-05-07 07:40 | 48.89028 | 9.15608 | 10550 ft | 335 kts | 78° |
| 2026-05-07 07:40 | 48.89450 | 9.19023 | 10430 ft | 323 kts | 78° |
| 2026-05-07 07:41 | 48.89856 | 9.22316 | 10317 ft | 312 kts | 78° |
| 2026-05-07 07:41 | 48.90250 | 9.25513 | 10176 ft | 305 kts | 78° |
| 2026-05-07 07:41 | 48.90633 | 9.28673 | 9934 ft | 301 kts | 80° |
| 2026-05-07 07:41 | 48.90635 | 9.31824 | 9359 ft | 298 kts | 99° |
| 2026-05-07 07:42 | 48.89955 | 9.34781 | 8729 ft | 296 kts | 120° |
| 2026-05-07 07:42 | 48.88688 | 9.37222 | 8047 ft | 293 kts | 140° |
| 2026-05-07 07:42 | 48.87115 | 9.39155 | 7298 ft | 290 kts | 143° |
| 2026-05-07 07:42 | 48.85540 | 9.41056 | 6589 ft | 287 kts | 143° |
| 2026-05-07 07:43 | 48.83988 | 9.42939 | 5837 ft | 285 kts | 143° |
| 2026-05-07 07:43 | 48.82454 | 9.44807 | 5120 ft | 280 kts | 143° |
| 2026-05-07 07:43 | 48.80991 | 9.46546 | 4857 ft | 258 kts | 150° |
| 2026-05-07 07:43 | 48.79455 | 9.47627 | 4728 ft | 230 kts | 168° |
| 2026-05-07 07:44 | 48.77909 | 9.47951 | 4640 ft | 217 kts | 185° |
| 2026-05-07 07:44 | 48.76463 | 9.47645 | 4572 ft | 211 kts | 200° |
| 2026-05-07 07:44 | 48.75127 | 9.46788 | 4368 ft | 207 kts | 214° |
| 2026-05-07 07:44 | 48.73998 | 9.45437 | 4040 ft | 204 kts | 231° |
| 2026-05-07 07:45 | 48.73190 | 9.43776 | 3856 ft | 190 kts | 244° |
| 2026-05-07 07:45 | 48.72709 | 9.41988 | 3650 ft | 174 kts | 256° |
| 2026-05-07 07:45 | 48.72391 | 9.40293 | 3424 ft | 163 kts | 256° |
| 2026-05-07 07:45 | 48.72089 | 9.38670 | 3208 ft | 158 kts | 256° |
| 2026-05-07 07:46 | 48.71798 | 9.37118 | 3001 ft | 150 kts | 257° |
| 2026-05-07 07:46 | 48.71519 | 9.35629 | 2801 ft | 145 kts | 256° |
| 2026-05-07 07:46 | 48.71248 | 9.34190 | 2591 ft | 140 kts | 257° |
| 2026-05-07 07:46 | 48.70988 | 9.32808 | 2410 ft | 134 kts | 257° |
| 2026-05-07 07:47 | 48.70734 | 9.31455 | 2209 ft | 133 kts | 255° |
| 2026-05-07 07:47 | 48.70484 | 9.30128 | 2019 ft | 130 kts | 255° |
| 2026-05-07 07:47 | 48.70238 | 9.28820 | 1847 ft | 129 kts | 254° |
| 2026-05-07 07:47 | 48.69990 | 9.27509 | 1660 ft | 130 kts | 255° |
| 2026-05-07 07:48 | 48.69745 | 9.26207 | 1489 ft | 129 kts | 253° |
| 2026-05-07 07:48 | 48.69500 | 9.24904 | 1304 ft | 129 kts | 255° |
| 2026-05-07 07:48 | 48.69260 | 9.23637 | 1209 ft | 112 kts | 255° |
| 2026-05-07 07:48 | 48.69098 | 9.22767 | 1227 ft | 60 kts | 254° |
| 2026-05-07 07:49 | 48.69025 | 9.22391 | 1238 ft | 26 kts | 251° |
| 2026-05-07 07:49 | 48.68977 | 9.22140 | 1241 ft | 23 kts | 255° |
| 2026-05-07 07:49 | 48.68939 | 9.21926 | 1250 ft | 19 kts | 259° |
| 2026-05-07 07:49 | 48.68945 | 9.21732 | 1253 ft | 19 kts | 276° |
| 2026-05-07 07:50 | 48.68972 | 9.21551 | 1261 ft | 11 kts | 284° |
| 2026-05-07 07:50 | 48.68985 | 9.21480 | 1259 ft | 5 kts | 284° |
| 2026-05-07 07:50 | 48.68996 | 9.21410 | 1266 ft | 14 kts | 284° |
| 2026-05-07 07:50 | 48.69024 | 9.21245 | 1264 ft | 18 kts | 285° |
| 2026-05-07 07:51 | 48.69033 | 9.21054 | 1272 ft | 18 kts | 259° |
| 2026-05-07 07:51 | 48.68998 | 9.20870 | 1268 ft | 18 kts | 254° |
| 2026-05-07 07:51 | 48.68963 | 9.20689 | 1271 ft | 17 kts | 253° |
| 2026-05-07 07:51 | 48.68930 | 9.20513 | 1277 ft | 17 kts | 254° |
| 2026-05-07 07:52 | 48.68897 | 9.20341 | 1279 ft | 17 kts | 254° |
| 2026-05-07 07:52 | 48.68866 | 9.20169 | 1283 ft | 17 kts | 253° |
| 2026-05-07 07:52 | 48.68834 | 9.20006 | 1286 ft | 11 kts | 254° |
| 2026-05-07 07:52 | 48.68838 | 9.19881 | 1289 ft | 14 kts | 304° |
| 2026-05-07 07:53 | 48.68875 | 9.19741 | 1285 ft | 16 kts | 263° |
| 2026-05-07 07:53 | 48.68842 | 9.19567 | 1287 ft | 18 kts | 254° |
| 2026-05-07 07:53 | 48.68831 | 9.19463 | 1285 ft | 7 kts | 296° |
| 2026-05-07 07:53 | 48.68873 | 9.19439 | 1286 ft | 3 kts | 344° |
| 2026-05-07 07:54 | 48.68891 | 9.19431 | 1287 ft | 2 kts | 344° |
| 2026-05-07 07:54 | 48.68896 | 9.19429 | 1287 ft | 0 kts | 344° |